Time;durP1;ratioP1;P1;durP2;ratioP2;P2;SDS_P1;SDS_P2;PMS_P1;PMS_P2;Temp;Humidity;BMP_temperature;BMP_pressure;BME280_temperature;BME280_humidity;BME280_pressure;Samples;Min_cycle;Max_cycle;Signal;HPM_P1;HPM_P2
2021/07/30 00:02:06;;;;;;;8.48;6.57;;;16.30;74.00;;;;;;5056363;28;20029;-72
2021/07/30 00:04:32;;;;;;;8.65;6.15;;;16.30;74.00;;;;;;5038261;28;20025;-72
2021/07/30 00:06:57;;;;;;;6.93;5.45;;;16.40;73.90;;;;;;5056390;28;20029;-72
2021/07/30 00:09:23;;;;;;;9.43;5.75;;;16.40;73.90;;;;;;5056285;28;20053;-71
2021/07/30 00:11:48;;;;;;;7.85;5.25;;;16.40;73.90;;;;;;5056207;28;20025;-72
2021/07/30 00:14:14;;;;;;;6.40;5.28;;;16.50;73.80;;;;;;5056192;28;20025;-72
2021/07/30 00:16:39;;;;;;;10.00;5.70;;;16.60;79.60;;;;;;5056116;28;20021;-72
2021/07/30 00:19:05;;;;;;;10.52;6.35;;;16.70;78.20;;;;;;5056056;28;20025;-71
2021/07/30 00:21:31;;;;;;;7.80;6.00;;;16.90;78.70;;;;;;5056066;28;20031;-72
2021/07/30 00:23:57;;;;;;;7.00;5.32;;;17.00;76.30;;;;;;5056082;28;20025;-72
2021/07/30 00:26:22;;;;;;;7.50;5.40;;;17.30;74.30;;;;;;5056011;28;20036;-72
2021/07/30 00:28:48;;;;;;;8.20;5.53;;;17.40;73.30;;;;;;5055938;28;20098;-72
2021/07/30 00:31:13;;;;;;;7.10;5.47;;;17.50;72.40;;;;;;5055812;28;20035;-72
2021/07/30 00:33:39;;;;;;;7.72;5.80;;;17.50;71.90;;;;;;5055827;28;20033;-72
2021/07/30 00:36:04;;;;;;;10.00;5.25;;;17.40;71.40;;;;;;5055785;28;20021;-72
2021/07/30 00:38:30;;;;;;;12.52;6.07;;;17.30;71.60;;;;;;5055872;28;20033;-72
2021/07/30 00:40:56;;;;;;;7.20;5.10;;;17.30;72.10;;;;;;5055763;28;20075;-72
2021/07/30 00:43:21;;;;;;;7.68;5.20;;;17.20;72.20;;;;;;5055726;28;20071;-72
2021/07/30 00:45:53;;;;;;;10.52;5.90;;;17.20;72.30;;;;;;5037807;28;20028;-71
2021/07/30 00:48:20;;;;;;;11.45;5.75;;;17.30;72.30;;;;;;5055553;28;20067;-71
2021/07/30 00:50:46;;;;;;;8.40;5.72;;;17.30;72.00;;;;;;5055590;28;20111;-72
2021/07/30 00:53:11;;;;;;;7.55;5.30;;;17.30;71.40;;;;;;5055403;28;20175;-77
2021/07/30 00:55:38;;;;;;;8.57;6.22;;;17.40;71.70;;;;;;5055494;28;20104;-72
2021/07/30 00:58:03;;;;;;;9.50;5.90;;;17.40;71.40;;;;;;5055360;28;20519;-72
2021/07/30 01:00:30;;;;;;;8.32;5.88;;;17.30;71.90;;;;;;5055401;28;20029;-71
2021/07/30 01:02:59;;;;;;;9.00;5.50;;;17.30;71.60;;;;;;5055363;28;20067;-71
2021/07/30 01:05:25;;;;;;;5.88;5.28;;;17.30;71.90;;;;;;5055133;28;20053;-73
2021/07/30 01:07:51;;;;;;;7.68;6.47;;;17.30;72.20;;;;;;5055278;28;20021;-71
2021/07/30 01:10:16;;;;;;;10.07;5.97;;;17.30;72.10;;;;;;5055261;28;20036;-71
2021/07/30 01:12:44;;;;;;;6.50;4.75;;;17.30;72.00;;;;;;5055035;28;20417;-72
2021/07/30 01:15:10;;;;;;;10.20;6.15;;;17.30;72.00;;;;;;5055044;28;20159;-71
2021/07/30 01:17:35;;;;;;;8.48;5.72;;;17.30;72.20;;;;;;5055011;28;20104;-71
2021/07/30 01:20:01;;;;;;;10.25;5.88;;;17.20;71.40;;;;;;5054978;28;20589;-71
2021/07/30 01:22:30;;;;;;;9.23;5.97;;;17.10;72.00;;;;;;5054998;28;20036;-72
2021/07/30 01:24:56;;;;;;;8.77;5.72;;;17.10;72.50;;;;;;5054835;28;20013;-71
2021/07/30 01:27:22;;;;;;;7.70;5.55;;;17.10;72.30;;;;;;5054970;28;20029;-71
2021/07/30 01:29:48;;;;;;;7.88;5.93;;;17.00;72.70;;;;;;5054780;28;20465;-71
2021/07/30 01:32:14;;;;;;;9.50;5.57;;;17.00;72.90;;;;;;5054728;28;20498;-71
2021/07/30 01:34:42;;;;;;;6.60;5.18;;;16.90;73.00;;;;;;5055611;28;20021;-77
2021/07/30 01:37:08;;;;;;;9.15;6.10;;;17.00;73.30;;;;;;5057323;28;20024;-78
2021/07/30 01:39:35;;;;;;;9.00;6.20;;;16.90;73.20;;;;;;5056035;28;20021;-78
2021/07/30 01:42:00;;;;;;;12.20;5.93;;;16.80;73.60;;;;;;5054371;28;20380;-77
2021/07/30 01:44:26;;;;;;;10.02;5.53;;;16.70;73.90;;;;;;5054591;28;20029;-79
2021/07/30 01:46:51;;;;;;;8.55;6.30;;;16.60;74.10;;;;;;5054608;28;20025;-78
2021/07/30 01:49:17;;;;;;;8.13;5.57;;;16.70;74.40;;;;;;5054487;28;20035;-78
2021/07/30 01:51:42;;;;;;;7.57;5.82;;;16.60;74.40;;;;;;5054450;28;20059;-77
2021/07/30 01:54:08;;;;;;;9.23;6.10;;;16.70;74.50;;;;;;5054454;28;20110;-78
2021/07/30 01:56:34;;;;;;;9.98;6.07;;;16.70;74.30;;;;;;5053116;28;20036;-78
2021/07/30 01:59:00;;;;;;;7.68;6.30;;;16.80;74.30;;;;;;5054162;28;20021;-78
2021/07/30 02:01:25;;;;;;;6.80;5.70;;;16.80;73.90;;;;;;5054067;28;20036;-79
2021/07/30 02:03:51;;;;;;;9.45;5.97;;;16.80;73.90;;;;;;5054151;28;20040;-78
2021/07/30 02:06:16;;;;;;;8.75;5.85;;;16.80;74.00;;;;;;5053993;28;20408;-76
2021/07/30 02:08:45;;;;;;;6.65;5.28;;;16.80;73.90;;;;;;5054214;28;20052;-78
2021/07/30 02:11:11;;;;;;;8.50;6.10;;;16.80;74.30;;;;;;5054070;28;20025;-78
2021/07/30 02:16:21;;;;;;;8.23;5.78;;;16.70;74.00;;;;;;5054315;28;20488;-76
2021/07/30 02:18:48;;;;;;;6.18;5.57;;;16.60;74.10;;;;;;5036029;28;20128;-76
2021/07/30 02:21:13;;;;;;;6.00;4.72;;;16.40;74.40;;;;;;5035950;28;20052;-76
2021/07/30 02:23:39;;;;;;;7.00;5.10;;;16.40;74.80;;;;;;5036060;28;20018;-76
2021/07/30 02:26:05;;;;;;;6.43;5.30;;;16.40;75.10;;;;;;5035912;28;20120;-76
2021/07/30 02:28:30;;;;;;;8.27;4.78;;;16.40;75.20;;;;;;5036332;28;20040;-77
2021/07/30 02:30:56;;;;;;;8.40;5.55;;;16.40;75.30;;;;;;5035497;28;20469;-76
2021/07/30 02:33:21;;;;;;;6.70;5.63;;;16.40;75.30;;;;;;5053331;28;20042;-76
2021/07/30 02:35:47;;;;;;;7.00;5.75;;;16.30;75.50;;;;;;5053648;28;20025;-76
2021/07/30 02:38:12;;;;;;;9.20;5.38;;;16.20;75.60;;;;;;5053578;28;20108;-76
2021/07/30 02:40:38;;;;;;;9.07;6.03;;;16.10;76.30;;;;;;5053562;28;20465;-76
2021/07/30 02:43:03;;;;;;;8.50;6.20;;;16.00;76.70;;;;;;5053521;28;20060;-76
2021/07/30 02:45:29;;;;;;;8.20;5.45;;;16.00;76.90;;;;;;5035519;28;20036;-76
2021/07/30 02:47:55;;;;;;;10.13;6.80;;;15.90;77.50;;;;;;5053430;28;20060;-77
2021/07/30 02:50:20;;;;;;;10.07;6.00;;;15.80;77.60;;;;;;5053372;28;20174;-76
2021/07/30 02:52:46;;;;;;;8.85;5.97;;;15.80;77.90;;;;;;5053245;28;20060;-76
2021/07/30 02:55:11;;;;;;;7.68;6.25;;;15.70;78.50;;;;;;5052793;28;20112;-76
2021/07/30 02:57:37;;;;;;;9.07;6.28;;;15.60;78.90;;;;;;5053320;28;20052;-78
2021/07/30 03:00:03;;;;;;;12.02;6.30;;;15.50;79.40;;;;;;5053236;28;20029;-76
2021/07/30 03:02:29;;;;;;;10.02;6.05;;;15.50;79.40;;;;;;5053113;28;20021;-78
2021/07/30 03:04:54;;;;;;;10.23;5.97;;;15.40;79.60;;;;;;5053071;28;20041;-76
2021/07/30 03:07:20;;;;;;;9.40;6.40;;;15.50;79.70;;;;;;5053234;28;20028;-76
2021/07/30 03:09:46;;;;;;;9.27;6.55;;;15.40;80.00;;;;;;5053076;28;20075;-76
2021/07/30 03:12:11;;;;;;;9.32;6.20;;;15.30;80.20;;;;;;5052056;28;20041;-76
2021/07/30 03:14:38;;;;;;;8.45;6.63;;;15.30;80.50;;;;;;5053178;28;20470;-76
2021/07/30 03:17:05;;;;;;;12.52;7.13;;;15.20;80.70;;;;;;5053015;28;20029;-76
2021/07/30 03:19:31;;;;;;;8.73;6.57;;;15.20;80.80;;;;;;5052874;28;20049;-76
2021/07/30 03:21:57;;;;;;;9.02;6.97;;;15.10;81.10;;;;;;5052852;28;20056;-76
2021/07/30 03:24:22;;;;;;;8.18;6.43;;;15.10;81.00;;;;;;5052948;28;20025;-75
2021/07/30 03:26:48;;;;;;;8.48;6.03;;;15.10;81.10;;;;;;5052764;28;20473;-75
2021/07/30 03:29:13;;;;;;;12.98;6.55;;;15.20;81.00;;;;;;5052790;28;20033;-76
2021/07/30 03:31:39;;;;;;;7.07;6.22;;;15.10;81.00;;;;;;5052659;28;20473;-76
2021/07/30 03:34:05;;;;;;;8.80;6.35;;;15.10;81.90;;;;;;5052779;28;20033;-76
2021/07/30 03:36:31;;;;;;;13.73;6.90;;;15.10;81.30;;;;;;5052867;28;20021;-76
2021/07/30 03:38:56;;;;;;;8.18;6.25;;;15.00;81.40;;;;;;5034933;28;20029;-76
2021/07/30 03:41:22;;;;;;;8.60;6.22;;;15.10;81.30;;;;;;5052802;28;20101;-78
2021/07/30 03:43:48;;;;;;;9.95;6.55;;;15.00;81.30;;;;;;5052612;28;20033;-78
2021/07/30 03:46:14;;;;;;;11.25;6.13;;;15.00;81.30;;;;;;5052574;28;20025;-76
2021/07/30 03:48:39;;;;;;;8.90;6.22;;;15.00;81.40;;;;;;5052720;28;20032;-77
2021/07/30 03:51:05;;;;;;;12.73;6.07;;;15.00;81.30;;;;;;5052547;28;20025;-76
2021/07/30 03:53:30;;;;;;;9.50;6.15;;;15.00;81.40;;;;;;5052516;28;20370;-73
2021/07/30 03:55:56;;;;;;;12.13;6.25;;;15.00;81.40;;;;;;5052564;28;20412;-73
2021/07/30 03:58:21;;;;;;;8.00;6.35;;;15.00;81.50;;;;;;5052628;28;20449;-72
2021/07/30 04:00:47;;;;;;;7.10;5.50;;;15.00;81.50;;;;;;5052601;28;20053;-72
2021/07/30 04:03:12;;;;;;;11.75;6.13;;;15.00;81.20;;;;;;5052554;28;20095;-73
2021/07/30 04:05:38;;;;;;;9.52;5.97;;;15.10;81.40;;;;;;5052327;28;20038;-74
2021/07/30 04:08:04;;;;;;;9.32;6.28;;;15.10;81.10;;;;;;5052529;28;20033;-78
2021/07/30 04:10:32;;;;;;;10.68;6.05;;;15.10;81.10;;;;;;5052478;28;20025;-77
2021/07/30 04:12:57;;;;;;;11.70;6.30;;;15.10;81.10;;;;;;5052298;28;20033;-78
2021/07/30 04:15:23;;;;;;;9.38;6.03;;;15.10;80.90;;;;;;5052407;28;20112;-76
2021/07/30 04:17:49;;;;;;;11.60;6.07;;;15.20;80.50;;;;;;5052409;28;20474;-76
2021/07/30 04:20:15;;;;;;;10.70;5.75;;;15.10;80.50;;;;;;5052469;28;20108;-77
2021/07/30 04:22:40;;;;;;;11.02;6.13;;;15.10;80.40;;;;;;5035286;28;20143;-76
2021/07/30 04:25:06;;;;;;;7.72;5.80;;;15.20;80.30;;;;;;5056052;28;20025;-76
2021/07/30 04:27:32;;;;;;;7.57;5.82;;;15.10;80.50;;;;;;5055961;28;20558;-76
2021/07/30 04:29:57;;;;;;;11.80;6.00;;;15.10;80.40;;;;;;5055848;28;20025;-76
2021/07/30 04:32:23;;;;;;;8.10;5.18;;;15.10;80.40;;;;;;5055910;28;20037;-72
2021/07/30 04:34:49;;;;;;;10.48;5.68;;;15.10;80.40;;;;;;5055893;28;20457;-71
2021/07/30 04:37:15;;;;;;;9.52;5.75;;;15.10;80.60;;;;;;5055853;28;20017;-72
2021/07/30 04:39:40;;;;;;;8.68;6.43;;;15.10;80.60;;;;;;5055719;28;20036;-72
2021/07/30 04:42:06;;;;;;;8.88;5.43;;;15.20;80.20;;;;;;5055603;28;20029;-72
2021/07/30 04:44:32;;;;;;;8.13;5.47;;;15.20;80.40;;;;;;5055732;28;20037;-72
2021/07/30 04:46:58;;;;;;;9.40;5.95;;;15.20;80.20;;;;;;5055648;28;20060;-74
2021/07/30 04:49:23;;;;;;;10.50;6.05;;;15.20;80.20;;;;;;5055604;28;20029;-74
2021/07/30 04:51:49;;;;;;;10.90;6.18;;;15.20;80.10;;;;;;5055460;28;20029;-74
2021/07/30 04:54:14;;;;;;;9.38;6.22;;;15.20;80.10;;;;;;5055518;28;20032;-73
2021/07/30 04:56:40;;;;;;;15.90;6.63;;;15.10;80.30;;;;;;5037616;28;20017;-73
2021/07/30 04:59:06;;;;;;;7.32;6.00;;;15.00;81.30;;;;;;5055368;28;20461;-73
2021/07/30 05:01:31;;;;;;;9.52;6.15;;;15.10;80.40;;;;;;5055268;28;20017;-74
2021/07/30 05:03:57;;;;;;;7.15;5.45;;;15.10;80.40;;;;;;5055099;28;20032;-73
2021/07/30 05:06:23;;;;;;;9.73;6.18;;;15.20;80.20;;;;;;5055045;28;20036;-74
2021/07/30 05:08:49;;;;;;;8.55;6.30;;;15.30;79.80;;;;;;5055215;28;20021;-72
2021/07/30 05:11:15;;;;;;;16.33;6.35;;;15.40;79.30;;;;;;5055136;28;20029;-73
2021/07/30 05:13:42;;;;;;;9.10;5.45;;;15.50;79.00;;;;;;5054921;28;20115;-74
2021/07/30 05:16:09;;;;;;;12.32;6.03;;;15.40;79.40;;;;;;5055099;28;20029;-71
2021/07/30 05:18:36;;;;;;;8.10;5.93;;;15.50;78.70;;;;;;5054969;28;20025;-74
2021/07/30 05:21:05;;;;;;;10.48;6.15;;;15.50;79.50;;;;;;5054980;28;20485;-72
2021/07/30 05:23:32;;;;;;;10.85;6.53;;;15.70;78.30;;;;;;5054860;28;20029;-73
2021/07/30 05:25:58;;;;;;;15.30;6.50;;;15.70;78.00;;;;;;5054795;28;20082;-72
2021/07/30 05:28:23;;;;;;;8.90;5.97;;;15.90;77.60;;;;;;5054695;28;20021;-73
2021/07/30 05:30:49;;;;;;;10.45;6.15;;;15.90;77.30;;;;;;5054721;28;20024;-72
2021/07/30 05:33:14;;;;;;;9.07;5.80;;;15.90;77.10;;;;;;5054593;28;20587;-72
2021/07/30 05:35:41;;;;;;;8.13;6.07;;;16.00;77.20;;;;;;5053763;28;20025;-72
2021/07/30 05:38:06;;;;;;;9.50;5.45;;;16.10;77.40;;;;;;5054601;28;20102;-73
2021/07/30 05:40:32;;;;;;;12.13;5.70;;;16.10;77.20;;;;;;5054621;28;20060;-72
2021/07/30 05:42:57;;;;;;;9.45;5.88;;;16.30;77.00;;;;;;5054408;28;20032;-72
2021/07/30 05:45:23;;;;;;;9.05;6.13;;;16.40;76.50;;;;;;5054538;28;20032;-72
2021/07/30 05:47:49;;;;;;;10.35;5.93;;;16.50;76.10;;;;;;5054159;28;20032;-72
2021/07/30 05:50:15;;;;;;;6.57;5.13;;;16.60;75.50;;;;;;5053853;28;20025;-72
2021/07/30 05:52:40;;;;;;;7.43;5.72;;;16.80;75.00;;;;;;5035744;28;20037;-75
2021/07/30 05:55:06;;;;;;;7.68;5.68;;;17.00;74.50;;;;;;5054106;28;20355;-72
2021/07/30 05:57:33;;;;;;;10.45;5.72;;;17.10;74.00;;;;;;5054054;28;20021;-73
2021/07/30 06:00:00;;;;;;;7.22;5.47;;;17.30;73.50;;;;;;5053901;28;20025;-74
2021/07/30 06:02:26;;;;;;;9.35;5.88;;;17.40;73.10;;;;;;5054050;28;20056;-74
2021/07/30 06:04:51;;;;;;;9.68;5.60;;;17.40;73.00;;;;;;5053837;28;20045;-72
2021/07/30 06:07:17;;;;;;;12.30;5.40;;;17.40;73.10;;;;;;5053885;28;20390;-73
2021/07/30 06:09:42;;;;;;;9.48;5.85;;;17.50;73.20;;;;;;5053790;28;20040;-74
2021/07/30 06:12:08;;;;;;;8.73;5.40;;;17.50;73.30;;;;;;5035851;28;20021;-73
2021/07/30 06:14:33;;;;;;;8.40;5.53;;;17.50;73.60;;;;;;5053772;28;20048;-74
2021/07/30 06:16:59;;;;;;;8.05;5.75;;;17.60;73.60;;;;;;5053721;28;20473;-73
2021/07/30 06:19:25;;;;;;;9.68;5.65;;;17.70;73.70;;;;;;5035750;28;20062;-75
2021/07/30 06:21:51;;;;;;;8.55;5.40;;;17.70;73.70;;;;;;5053733;28;20036;-76
2021/07/30 06:24:16;;;;;;;9.52;5.78;;;17.90;73.70;;;;;;5053647;28;20074;-74
2021/07/30 06:26:42;;;;;;;8.95;4.57;;;18.00;73.40;;;;;;5053424;28;20028;-73
2021/07/30 06:29:07;;;;;;;11.65;4.93;;;18.30;73.00;;;;;;5035588;28;20122;-73
2021/07/30 06:31:33;;;;;;;10.07;5.53;;;18.40;73.50;;;;;;5053425;28;20544;-73
2021/07/30 06:33:59;;;;;;;12.43;5.70;;;18.60;72.20;;;;;;5053547;28;20033;-73
2021/07/30 06:36:25;;;;;;;7.43;4.72;;;18.80;71.10;;;;;;5053527;28;20021;-73
2021/07/30 06:38:50;;;;;;;8.43;4.65;;;18.90;70.00;;;;;;5053237;28;20055;-75
2021/07/30 06:41:17;;;;;;;6.80;5.18;;;19.00;69.80;;;;;;5053231;28;20025;-75
2021/07/30 06:43:43;;;;;;;11.07;5.15;;;19.10;69.70;;;;;;5052886;28;20448;-73
2021/07/30 06:46:09;;;;;;;8.38;4.70;;;19.40;69.10;;;;;;5052958;28;20028;-73
2021/07/30 06:48:34;;;;;;;16.33;5.55;;;19.50;68.40;;;;;;5053086;28;20052;-73
2021/07/30 06:51:00;;;;;;;7.43;5.15;;;19.60;68.30;;;;;;5051518;28;20029;-73
2021/07/30 06:53:25;;;;;;;7.45;5.45;;;19.60;67.80;;;;;;5052592;28;20504;-74
2021/07/30 06:55:51;;;;;;;9.93;4.95;;;19.70;67.80;;;;;;5052895;28;20013;-73
2021/07/30 06:58:16;;;;;;;5.47;4.72;;;19.90;67.40;;;;;;5052626;28;20033;-73
2021/07/30 07:00:42;;;;;;;6.85;4.60;;;20.00;66.50;;;;;;5052664;28;20036;-72
2021/07/30 07:03:07;;;;;;;7.40;5.03;;;20.10;66.40;;;;;;5052613;28;20029;-73
2021/07/30 07:05:36;;;;;;;10.73;5.07;;;20.30;65.80;;;;;;5052651;28;20048;-73
2021/07/30 07:08:02;;;;;;;9.02;5.07;;;20.30;64.40;;;;;;5052738;28;20485;-72
2021/07/30 07:10:27;;;;;;;6.25;4.90;;;20.40;63.70;;;;;;5052775;28;20029;-73
2021/07/30 07:12:53;;;;;;;8.63;4.55;;;20.60;62.40;;;;;;5052714;28;20428;-73
2021/07/30 07:15:18;;;;;;;7.00;5.00;;;20.70;61.90;;;;;;5051028;28;20108;-72
2021/07/30 07:17:44;;;;;;;8.88;5.22;;;20.90;61.60;;;;;;5052527;28;20029;-72
2021/07/30 07:20:10;;;;;;;9.82;4.82;;;21.10;59.20;;;;;;5052656;28;20025;-73
2021/07/30 07:22:35;;;;;;;7.93;5.15;;;21.30;57.70;;;;;;5052769;28;20047;-73
2021/07/30 07:25:01;;;;;;;9.25;4.90;;;21.50;58.00;;;;;;5052657;28;20112;-72
2021/07/30 07:27:27;;;;;;;6.97;4.55;;;21.50;56.40;;;;;;5052564;28;20048;-74
2021/07/30 07:29:52;;;;;;;6.68;4.97;;;21.70;56.10;;;;;;5052320;28;20021;-74
2021/07/30 07:32:18;;;;;;;7.93;5.25;;;21.70;55.60;;;;;;5052335;28;20029;-73
2021/07/30 07:34:44;;;;;;;5.97;4.95;;;21.70;54.80;;;;;;5052621;28;20025;-73
2021/07/30 07:37:09;;;;;;;7.25;4.85;;;21.80;53.40;;;;;;5052466;28;20024;-73
2021/07/30 07:39:35;;;;;;;5.80;4.70;;;21.80;53.30;;;;;;5051183;28;20506;-73
2021/07/30 07:42:00;;;;;;;5.40;4.90;;;21.90;52.90;;;;;;5052321;28;20021;-73
2021/07/30 07:44:26;;;;;;;7.95;4.85;;;22.00;53.70;;;;;;5052328;28;20100;-72
2021/07/30 07:46:51;;;;;;;6.40;4.68;;;22.20;53.70;;;;;;5052397;28;20025;-72
2021/07/30 07:49:17;;;;;;;6.18;4.57;;;22.30;53.20;;;;;;5034489;28;20033;-72
2021/07/30 07:51:43;;;;;;;5.25;4.30;;;22.50;52.70;;;;;;5052254;28;20046;-72
2021/07/30 07:54:09;;;;;;;6.25;4.78;;;22.70;52.60;;;;;;5051973;28;20404;-72
2021/07/30 07:56:35;;;;;;;10.65;5.57;;;22.90;52.90;;;;;;5052412;28;20080;-72
2021/07/30 07:59:02;;;;;;;6.63;4.78;;;23.10;52.70;;;;;;5055161;28;20021;-72
2021/07/30 08:01:27;;;;;;;6.18;5.57;;;23.20;52.50;;;;;;5056108;28;20040;-72
2021/07/30 08:03:53;;;;;;;5.50;4.50;;;23.30;52.20;;;;;;5056101;28;20021;-72
2021/07/30 08:06:20;;;;;;;5.85;4.07;;;23.50;51.00;;;;;;5056061;28;20048;-72
2021/07/30 08:08:46;;;;;;;8.07;5.22;;;23.60;51.10;;;;;;5056002;28;20104;-72
2021/07/30 08:11:12;;;;;;;8.30;5.25;;;23.70;50.90;;;;;;5056056;28;20029;-72
2021/07/30 08:13:37;;;;;;;5.57;4.63;;;23.70;50.50;;;;;;5055747;28;20037;-72
2021/07/30 08:16:03;;;;;;;5.40;4.78;;;23.80;49.80;;;;;;5055841;28;20445;-72
2021/07/30 08:18:29;;;;;;;6.05;4.22;;;23.80;50.10;;;;;;5038083;28;20422;-71
2021/07/30 08:20:55;;;;;;;7.10;5.20;;;23.80;48.90;;;;;;5055895;28;20033;-73
2021/07/30 08:23:21;;;;;;;5.63;5.00;;;23.80;49.00;;;;;;5055727;28;20028;-72
2021/07/30 08:25:46;;;;;;;10.48;5.18;;;23.90;49.30;;;;;;5055953;28;20021;-72
2021/07/30 08:28:13;;;;;;;12.23;5.88;;;23.80;49.30;;;;;;5055648;28;20029;-72
2021/07/30 08:30:41;;;;;;;5.38;4.88;;;23.50;50.70;;;;;;5055670;28;20060;-72
2021/07/30 08:33:07;;;;;;;7.28;5.22;;;23.40;51.90;;;;;;5055337;28;20036;-72
2021/07/30 08:35:34;;;;;;;9.05;5.15;;;23.40;52.60;;;;;;5055763;28;20517;-72
2021/07/30 08:38:00;;;;;;;5.57;5.05;;;23.50;52.60;;;;;;5055811;28;20078;-72
2021/07/30 08:40:31;;;;;;;6.97;5.28;;;23.70;52.40;;;;;;5055708;28;20432;-73
2021/07/30 08:42:58;;;;;;;6.50;4.85;;;23.90;52.50;;;;;;5055439;28;20481;-72
2021/07/30 08:45:23;;;;;;;5.72;4.70;;;24.00;51.80;;;;;;5055644;28;20531;-72
2021/07/30 08:47:51;;;;;;;5.07;4.38;;;24.30;51.90;;;;;;5055132;28;20072;-73
2021/07/30 08:50:17;;;;;;;7.82;5.13;;;24.50;51.90;;;;;;5054871;28;20025;-73
2021/07/30 08:52:44;;;;;;;7.70;5.45;;;24.60;50.50;;;;;;5055246;28;20040;-72
2021/07/30 08:55:11;;;;;;;7.07;5.45;;;24.60;49.80;;;;;;5056196;28;20025;-73
2021/07/30 08:57:37;;;;;;;8.60;5.80;;;24.60;49.90;;;;;;5055493;28;20045;-72
2021/07/30 09:00:14;;;;;;;7.95;5.97;;;24.40;50.10;;;;;;5055810;28;20063;-72
2021/07/30 09:02:40;;;;;;;5.65;5.05;;;24.20;51.00;;;;;;5056424;28;20071;-73
2021/07/30 09:05:26;;;;;;;7.22;5.07;;;24.10;50.80;;;;;;5055749;28;20037;-72
2021/07/30 09:07:51;;;;;;;5.70;4.70;;;24.10;51.90;;;;;;5056311;28;20108;-74
2021/07/30 09:10:33;;;;;;;6.45;5.65;;;24.30;52.60;;;;;;5055115;28;20064;-72
2021/07/30 09:13:22;;;;;;;6.50;5.07;;;24.30;52.50;;;;;;5060766;28;20033;-72
2021/07/30 09:15:58;;;;;;;7.22;5.10;;;24.40;51.70;;;;;;5057883;28;20469;-72
2021/07/30 09:18:34;;;;;;;8.50;5.68;;;24.50;52.40;;;;;;5061908;28;20029;-72
2021/07/30 09:21:16;;;;;;;6.45;5.30;;;24.70;52.20;;;;;;5066441;28;20021;-72
2021/07/30 09:23:58;;;;;;;6.15;5.38;;;24.90;53.00;;;;;;5062505;28;20025;-72
2021/07/30 09:26:30;;;;;;;6.15;5.20;;;25.00;53.00;;;;;;5061336;28;20474;-73
2021/07/30 09:28:57;;;;;;;5.90;5.30;;;25.20;52.60;;;;;;5061985;28;20104;-73
2021/07/30 09:31:35;;;;;;;7.78;5.75;;;25.20;52.50;;;;;;5058854;28;20393;-73
2021/07/30 09:34:13;;;;;;;8.73;5.22;;;25.30;51.00;;;;;;5057142;28;20039;-72
2021/07/30 09:36:49;;;;;;;8.05;5.80;;;25.40;49.50;;;;;;5057184;28;20056;-72
2021/07/30 09:39:16;;;;;;;5.35;4.85;;;25.50;50.80;;;;;;5056475;28;20032;-73
2021/07/30 09:42:04;;;;;;;6.95;5.55;;;25.50;50.20;;;;;;5056764;28;20146;-73
2021/07/30 09:44:29;;;;;;;8.43;5.75;;;25.70;51.10;;;;;;5057084;28;20021;-73
2021/07/30 09:47:02;;;;;;;7.88;5.45;;;25.70;49.60;;;;;;5056167;28;20032;-73
2021/07/30 09:49:48;;;;;;;6.70;5.95;;;25.70;47.60;;;;;;5056487;28;20413;-73
2021/07/30 09:52:16;;;;;;;7.35;5.57;;;25.60;47.60;;;;;;5037576;28;20073;-73
2021/07/30 09:54:57;;;;;;;7.28;6.35;;;25.70;47.90;;;;;;5056378;28;20032;-73
2021/07/30 09:57:26;;;;;;;6.78;5.95;;;25.70;48.80;;;;;;5055688;28;20017;-72
2021/07/30 09:59:58;;;;;;;9.18;6.13;;;25.80;49.20;;;;;;5054686;28;20028;-73
2021/07/30 10:02:27;;;;;;;6.28;5.65;;;26.00;48.50;;;;;;5054972;28;20112;-72
2021/07/30 10:04:53;;;;;;;7.10;5.57;;;26.20;48.50;;;;;;5054655;28;20029;-73
2021/07/30 10:07:24;;;;;;;7.13;5.30;;;26.40;48.00;;;;;;5054585;28;20175;-73
2021/07/30 10:09:58;;;;;;;9.20;5.78;;;26.50;47.70;;;;;;5055182;28;20021;-73
2021/07/30 10:12:25;;;;;;;10.18;6.13;;;26.70;46.90;;;;;;5054434;28;20028;-73
2021/07/30 10:14:51;;;;;;;9.10;5.38;;;26.70;46.00;;;;;;5054537;28;20029;-73
2021/07/30 10:17:24;;;;;;;8.23;6.05;;;26.40;46.50;;;;;;5053497;28;20021;-73
2021/07/30 10:19:50;;;;;;;8.23;6.10;;;26.50;46.80;;;;;;5054055;28;20025;-72
2021/07/30 10:22:17;;;;;;;8.57;6.45;;;26.50;45.40;;;;;;5053701;28;20369;-73
2021/07/30 10:24:47;;;;;;;6.50;5.90;;;26.50;45.90;;;;;;5053772;28;20025;-72
2021/07/30 10:27:14;;;;;;;7.88;6.10;;;26.70;46.40;;;;;;5053732;28;20021;-73
2021/07/30 10:29:59;;;;;;;7.47;6.28;;;26.80;46.30;;;;;;5035833;28;20416;-73
2021/07/30 10:32:50;;;;;;;8.43;5.75;;;26.90;45.90;;;;;;5053563;28;20556;-73
2021/07/30 10:35:27;;;;;;;7.85;5.63;;;27.20;45.80;;;;;;5053822;28;20036;-73
2021/07/30 10:38:13;;;;;;;8.93;6.38;;;27.40;45.80;;;;;;5053214;28;20017;-73
2021/07/30 10:40:39;;;;;;;6.35;5.75;;;27.50;44.00;;;;;;5052967;28;20036;-73
2021/07/30 10:43:07;;;;;;;8.80;6.28;;;27.40;43.80;;;;;;5053362;28;20036;-73
2021/07/30 10:45:43;;;;;;;7.63;6.25;;;27.00;45.00;;;;;;5053028;28;20067;-73
2021/07/30 10:48:12;;;;;;;7.47;5.82;;;26.90;46.10;;;;;;5053116;28;20027;-73
2021/07/30 10:50:45;;;;;;;8.75;5.78;;;26.90;45.80;;;;;;5053228;28;20032;-73
2021/07/30 10:53:38;;;;;;;6.82;6.10;;;27.10;45.90;;;;;;5052693;28;20396;-73
2021/07/30 10:56:05;;;;;;;7.57;6.22;;;27.10;45.20;;;;;;5052852;28;20118;-73
2021/07/30 10:58:40;;;;;;;10.15;6.30;;;27.10;46.10;;;;;;5052971;28;20473;-74
2021/07/30 11:01:10;;;;;;;8.98;5.82;;;27.10;45.10;;;;;;5053277;28;20025;-73
2021/07/30 11:03:51;;;;;;;8.68;5.68;;;27.30;45.50;;;;;;5052916;28;20096;-73
2021/07/30 11:06:18;;;;;;;6.40;5.57;;;27.60;44.30;;;;;;5052634;28;20096;-72
2021/07/30 11:09:02;;;;;;;7.35;5.70;;;27.90;45.00;;;;;;5052950;28;20039;-74
2021/07/30 11:11:44;;;;;;;12.82;6.43;;;27.90;43.20;;;;;;5052830;28;20025;-72
2021/07/30 11:14:13;;;;;;;6.78;5.75;;;28.10;42.50;;;;;;5043623;28;20397;-73
2021/07/30 11:16:39;;;;;;;7.90;6.20;;;28.10;43.20;;;;;;5034814;28;20021;-75
2021/07/30 11:19:06;;;;;;;9.45;5.45;;;28.30;43.80;;;;;;5052722;28;20159;-74
2021/07/30 11:21:32;;;;;;;9.27;5.70;;;28.40;41.90;;;;;;5052687;28;20022;-74
2021/07/30 11:23:58;;;;;;;7.30;5.88;;;27.80;40.80;;;;;;5052328;28;20044;-72
2021/07/30 11:26:24;;;;;;;6.78;5.68;;;27.20;42.80;;;;;;5052245;28;20102;-75
2021/07/30 11:28:52;;;;;;;9.50;6.70;;;26.80;44.20;;;;;;5052374;28;20021;-74
2021/07/30 11:31:18;;;;;;;7.38;5.82;;;26.60;45.70;;;;;;5051717;28;20489;-74
2021/07/30 11:33:44;;;;;;;8.52;6.10;;;26.50;46.10;;;;;;5051753;28;20049;-74
2021/07/30 11:36:14;;;;;;;8.50;5.85;;;26.70;46.40;;;;;;5052647;28;20017;-73
2021/07/30 11:38:58;;;;;;;7.70;6.05;;;27.00;46.70;;;;;;5052646;28;20477;-74
2021/07/30 11:41:24;;;;;;;7.78;6.40;;;26.90;45.00;;;;;;5052608;28;20071;-73
2021/07/30 11:44:09;;;;;;;9.70;6.68;;;26.80;46.50;;;;;;5052675;28;20024;-73
2021/07/30 11:46:35;;;;;;;6.50;5.78;;;27.00;45.80;;;;;;5051967;28;20108;-73
2021/07/30 11:49:05;;;;;;;6.68;6.00;;;27.10;44.10;;;;;;5052205;28;20044;-76
2021/07/30 11:51:31;;;;;;;8.13;5.65;;;27.30;44.20;;;;;;5052103;28;20017;-74
2021/07/30 11:53:57;;;;;;;9.00;5.93;;;27.40;44.80;;;;;;5052338;28;20037;-75
2021/07/30 11:56:23;;;;;;;15.02;7.05;;;27.60;44.20;;;;;;5052542;28;20207;-74
2021/07/30 11:59:00;;;;;;;7.65;6.45;;;28.00;43.50;;;;;;5052666;28;20029;-75
2021/07/30 12:01:27;;;;;;;8.20;5.90;;;27.90;42.30;;;;;;5052455;28;20575;-75
2021/07/30 12:04:06;;;;;;;13.70;6.78;;;28.00;42.90;;;;;;5034407;28;20028;-75
2021/07/30 12:06:37;;;;;;;8.63;6.68;;;27.90;42.20;;;;;;5034125;28;20366;-76
2021/07/30 12:09:06;;;;;;;12.85;6.45;;;28.10;42.40;;;;;;5034273;28;20018;-76
2021/07/30 12:11:32;;;;;;;10.48;6.57;;;28.00;45.00;;;;;;5052083;28;20078;-77
2021/07/30 12:13:57;;;;;;;8.82;6.70;;;28.10;44.20;;;;;;5052048;28;20028;-73
2021/07/30 12:16:23;;;;;;;9.10;7.05;;;27.90;43.80;;;;;;5052030;28;20017;-75
2021/07/30 12:18:48;;;;;;;7.00;6.07;;;28.10;44.10;;;;;;5051902;28;20551;-76
2021/07/30 12:21:14;;;;;;;7.50;6.53;;;28.30;43.40;;;;;;5051820;28;20017;-79
2021/07/30 12:23:40;;;;;;;9.48;6.50;;;28.20;43.60;;;;;;5052004;28;20033;-76
2021/07/30 12:26:05;;;;;;;11.60;6.88;;;28.30;43.10;;;;;;5033953;28;20017;-77
2021/07/30 12:28:40;;;;;;;9.48;5.75;;;28.00;43.60;;;;;;5034518;28;20031;-82
2021/07/30 12:31:15;;;;;;;7.80;6.10;;;27.80;44.40;;;;;;5052302;28;20370;-76
2021/07/30 12:33:40;;;;;;;;;;;27.60;45.70;;;;;;5052444;28;20287;-78
2021/07/30 12:36:10;;;;;;;10.43;6.85;;;27.80;46.00;;;;;;5051974;28;19958;-74
2021/07/30 12:39:01;;;;;;;17.58;6.47;;;28.00;45.90;;;;;;5034013;28;20516;-77
2021/07/30 12:41:30;;;;;;;7.32;6.53;;;28.10;45.80;;;;;;5052157;28;20032;-78
2021/07/30 12:44:16;;;;;;;9.43;6.05;;;28.30;44.70;;;;;;5052935;28;20135;-77
2021/07/30 12:46:50;;;;;;;8.20;6.07;;;28.30;44.10;;;;;;5054643;28;20041;-76
2021/07/30 12:49:27;;;;;;;9.75;6.45;;;28.20;45.90;;;;;;5055133;28;20100;-75
2021/07/30 12:51:53;;;;;;;6.45;5.85;;;28.10;45.80;;;;;;5054991;28;20079;-76